Big Pine Key, FL (33043)

7:14 AM EST on January 22, 2017 (GMT -0500)
The Hideaway in Eden Pines | | Change Station
Active Advisory: Small Craft Advisory

Elev 30 ft 24.69 °N, 81.37 °W | Updated 16 seconds ago

Partly Cloudy
Partly Cloudy
76.8 °F
Feels Like 78 °F
N
7.0
Wind Variable Wind from SSE

Today
High -- | Low -- °F
--% Chance of Precip.
Yesterday
High -- | Low -- °F
Precip. -- in
Pressure 29.81 in
Visibility 10.0 miles
Clouds Scattered Clouds 9000 ft
Heat Index 78 °F
Dew Point 71 °F
Humidity 85%
Rainfall 0.00 in
Snow Depth Not available.
7:10 AM 6:03 PM
Waning Crescent, 27% visible
METAR KNQX 221153Z 19017KT 10SM SCT090 25/22 A2981 RMK AO2 SLP094 T02500217 10256 20250 53001 $
Pressure 29.81 in
Visibility 10.0 miles
Clouds Scattered Clouds 9000 ft
Heat Index 78 °F
Dew Point 71 °F
Humidity 85%
Rainfall 0.00 in
Snow Depth Not available.
7:10 AM 6:03 PM
Waning Crescent, 27% visible
METAR KNQX 221153Z 19017KT 10SM SCT090 25/22 A2981 RMK AO2 SLP094 T02500217 10256 20250 53001 $

Get Your Daily Forecast Email!

Thanks for signing up!

Be on the lookout for a verification email in your inbox.

You'll start receiving the daily forecast at 8 AM.

×

10-Day Weather Forecast

Almanac

Astronomy

Jan. 22, 2017 Rise Set
Actual Time
Civil Twilight
Nautical Twilight
Astronomical Twilight
Moon
Length of Visible Light
Length of Day
Tomorrow will be .
, % of the Moon is Illuminated

Today's Extremes

State Highs State Lows

Community

WunderPhotos

Upload Photos

1,962,540 photos uploaded!

WunderBlog® & News

Nearby

Air Quality

  Air Quality AQ Index Pollutant
Not available.

Snow Depth

Station Depth Elevation

Earthquake Activity

City Distance Mag. Time & Date
Minimum magnitude displayed is 2.5.

Coastal Water Temperatures

Place Temperature

Stations

Nearby Weather Stations

Station Location Temp. Windchill Dew Point Humidity Wind Precip. Elev Updated Type
                   

Watches & Warnings

Small Craft Advisory
Issued: 3:59 AM EST Jan. 22, 2017 – National Weather Service

... Small Craft Advisory is in effect...

The National Weather Service in Key West has issued a Small Craft
Advisory for increasing winds, which is in effect this morning.

* Winds... south winds near 20 knots will increase to 20 to 25
knots.

* Waves/seas... seas will build to near 7 feet in a few portions
of the Gulf Stream.

Precautionary/preparedness actions...

A Small Craft Advisory means that wind speeds of 20 to 33 knots...
or seas of 7 feet or greater... are expected to produce hazardous
conditions for small craft. Inexperienced boaters... especially
those with smaller vessels... should avoid operating in these
conditions.